createdAt,value
2017-09-26T15:08:04.682Z,8.10
2017-09-26T15:09:11.533Z,8.32
2017-09-26T15:10:17.664Z,8.10
2017-09-26T15:11:23.963Z,8.77
2017-09-26T15:12:31.253Z,7.47
2017-09-26T15:13:39.003Z,7.85
2017-09-26T15:14:48.219Z,7.93
2017-09-26T15:15:55.485Z,8.15
2017-09-26T15:17:04.141Z,8.07
2017-09-26T15:18:12.258Z,9.05
2017-09-26T15:19:18.964Z,9.63
2017-09-26T15:20:26.257Z,8.65
2017-09-26T15:21:33.221Z,9.18
2017-09-26T15:22:41.479Z,8.55
2017-09-26T15:23:48.098Z,7.90
2017-09-26T15:24:55.945Z,8.60
2017-09-26T15:26:03.461Z,10.18
2017-09-26T15:27:10.718Z,9.35
2017-09-26T15:28:17.438Z,8.70
2017-09-26T15:29:25.416Z,8.95
2017-09-26T15:30:31.803Z,9.68
2017-09-26T15:31:41.408Z,8.73
2017-09-26T15:32:47.981Z,9.02
2017-09-26T15:33:55.390Z,8.15
2017-09-26T15:35:03.090Z,8.07
2017-09-26T15:36:09.816Z,8.57
2017-09-26T15:37:16.309Z,8.55
2017-09-26T15:38:23.191Z,7.72
2017-09-26T15:39:30.078Z,7.90
2017-09-26T15:40:36.268Z,7.03
2017-09-26T15:41:44.253Z,7.65
2017-09-26T15:42:53.068Z,8.48
2017-09-26T15:43:59.786Z,7.87
2017-09-26T15:45:06.343Z,7.82
2017-09-26T15:46:14.883Z,7.87
2017-09-26T15:47:21.962Z,9.05
2017-09-26T15:48:28.079Z,8.35
2017-09-26T15:49:34.455Z,8.13
2017-09-26T15:50:43.151Z,8.63
2017-09-26T15:51:49.587Z,7.03
2017-09-26T15:52:55.882Z,8.38
2017-09-26T15:54:02.091Z,7.70
2017-09-26T15:55:08.472Z,8.60
2017-09-26T15:56:14.849Z,8.55
2017-09-26T15:57:21.042Z,7.78
2017-09-26T15:58:27.956Z,8.90
2017-09-26T15:59:34.132Z,8.20
2017-09-26T16:00:40.272Z,8.70
2017-09-26T16:01:46.551Z,8.10
2017-09-26T16:02:53.346Z,8.20
2017-09-26T16:04:00.897Z,7.45
2017-09-26T16:05:07.820Z,7.45
2017-09-26T16:06:14.136Z,8.07
2017-09-26T16:07:20.444Z,7.40
2017-09-26T16:08:27.681Z,7.80
2017-09-26T16:09:33.836Z,8.32
2017-09-26T16:10:40.037Z,7.47
2017-09-26T16:11:46.155Z,7.68
2017-09-26T16:12:54.679Z,8.20
2017-09-26T16:14:01.883Z,7.97
2017-09-26T16:15:10.046Z,8.40
2017-09-26T16:16:18.024Z,7.82
2017-09-26T16:17:24.438Z,7.75
2017-09-26T16:18:31.302Z,7.35
2017-09-26T16:19:39.219Z,7.97
2017-09-26T16:20:46.126Z,7.90
2017-09-26T16:21:53.147Z,7.72
2017-09-26T16:23:00.308Z,7.93
2017-09-26T16:24:06.538Z,7.43
2017-09-26T16:25:13.643Z,8.60
2017-09-26T16:26:20.444Z,7.85
2017-09-26T16:27:28.437Z,7.10
2017-09-26T16:28:37.581Z,7.90
2017-09-26T16:29:47.384Z,7.85
2017-09-26T16:30:56.213Z,7.20
2017-09-26T16:32:02.916Z,8.13
2017-09-26T16:33:11.318Z,8.00
2017-09-26T16:34:17.705Z,7.80
2017-09-26T16:35:24.320Z,8.57
2017-09-26T16:36:31.531Z,8.18
2017-09-26T16:37:39.029Z,8.40
2017-09-26T16:38:46.021Z,7.82
2017-09-26T16:39:54.237Z,7.40
2017-09-26T16:41:01.179Z,7.70
2017-09-26T16:42:08.419Z,8.65
2017-09-26T16:43:16.075Z,8.30
2017-09-26T16:44:23.331Z,7.57
2017-09-26T16:45:29.380Z,8.90
2017-09-26T16:46:36.199Z,8.55
2017-09-26T16:47:44.426Z,8.55
2017-09-26T16:48:52.461Z,8.38
2017-09-26T16:50:00.057Z,8.25
2017-09-26T16:51:07.775Z,8.82
2017-09-26T16:52:15.513Z,8.98
2017-09-26T16:53:23.155Z,9.30
2017-09-26T16:54:30.171Z,8.77
2017-09-26T16:55:38.878Z,7.97
2017-09-26T16:56:48.234Z,8.43
2017-09-26T16:57:56.572Z,9.13
2017-09-26T16:59:04.844Z,10.00
2017-09-26T17:00:12.244Z,8.68
2017-09-26T17:01:20.010Z,9.02
2017-09-26T17:02:26.748Z,9.18
2017-09-26T17:03:34.391Z,9.57
2017-09-26T17:04:42.239Z,9.98
2017-09-26T17:05:48.733Z,9.32
2017-09-26T17:06:57.737Z,8.90
2017-09-26T17:08:04.989Z,9.15
2017-09-26T17:09:11.956Z,9.02
2017-09-26T17:10:18.869Z,8.68
2017-09-26T17:11:25.066Z,8.90
2017-09-26T17:12:32.428Z,9.15
2017-09-26T17:13:38.612Z,9.95
2017-09-26T17:14:44.855Z,8.98
2017-09-26T17:15:51.096Z,8.45
2017-09-26T17:16:59.017Z,9.02
2017-09-26T17:18:04.964Z,8.77
2017-09-26T17:19:11.187Z,9.90
2017-09-26T17:20:18.126Z,9.05
2017-09-26T17:21:24.328Z,11.35
2017-09-26T17:22:31.104Z,8.93
2017-09-26T17:23:37.347Z,8.93
2017-09-26T17:24:44.299Z,9.63
2017-09-26T17:25:50.397Z,10.93
2017-09-26T17:26:56.680Z,10.30
2017-09-26T17:28:02.758Z,10.63
2017-09-26T17:29:09.165Z,10.63
2017-09-26T17:30:15.240Z,12.63
2017-09-26T17:31:21.369Z,12.18
2017-09-26T17:32:28.495Z,10.45
2017-09-26T17:33:35.603Z,10.85
2017-09-26T17:34:42.548Z,9.15
2017-09-26T17:35:48.796Z,9.32
2017-09-26T17:36:54.977Z,8.57
2017-09-26T17:38:02.711Z,9.25
2017-09-26T17:39:09.206Z,9.07
2017-09-26T17:40:15.299Z,8.98
2017-09-26T17:41:21.220Z,8.40
2017-09-26T17:42:27.460Z,8.85
2017-09-26T17:43:34.523Z,9.05
2017-09-26T17:44:41.170Z,8.45
2017-09-26T17:45:47.733Z,8.55
2017-09-26T17:46:54.164Z,8.10
2017-09-26T17:48:00.346Z,8.27
2017-09-26T17:49:06.508Z,7.82
2017-09-26T17:50:12.824Z,8.55
2017-09-26T17:51:20.569Z,9.60
2017-09-26T17:52:27.058Z,9.50
2017-09-26T17:53:33.109Z,10.10
2017-09-26T17:54:39.180Z,9.48
2017-09-26T17:55:45.636Z,10.05
2017-09-26T17:56:51.742Z,11.55
2017-09-26T17:57:58.310Z,10.10
2017-09-26T17:59:05.140Z,12.52
2017-09-26T18:00:11.548Z,10.45
2017-09-26T18:01:17.872Z,10.57
2017-09-26T18:02:28.856Z,11.32
2017-09-26T18:03:37.352Z,11.40
2017-09-26T18:04:48.260Z,10.88
2017-09-26T18:05:56.987Z,12.90
2017-09-26T18:07:03.186Z,10.48
2017-09-26T18:08:10.318Z,10.88
2017-09-26T18:09:16.763Z,11.63
2017-09-26T18:10:23.829Z,12.10
2017-09-26T18:11:34.959Z,12.02
2017-09-26T18:12:43.012Z,11.68
2017-09-26T18:13:49.497Z,11.73
2017-09-26T18:14:57.023Z,12.70
2017-09-26T18:16:03.562Z,12.13
2017-09-26T18:17:09.564Z,11.43
2017-09-26T18:18:16.388Z,11.65
2017-09-26T18:19:23.636Z,12.05
2017-09-26T18:20:29.928Z,12.82
2017-09-26T18:21:37.616Z,13.27
2017-09-26T18:22:43.724Z,13.18
2017-09-26T18:23:50.202Z,14.02
2017-09-26T18:24:56.875Z,13.77
2017-09-26T18:26:03.028Z,13.73
2017-09-26T18:27:09.482Z,13.25
2017-09-26T18:28:17.779Z,14.15
2017-09-26T18:29:24.204Z,14.40
2017-09-26T18:30:30.690Z,13.85
2017-09-26T18:31:37.250Z,13.35
2017-09-26T18:32:43.376Z,15.13
2017-09-26T18:33:50.332Z,15.80
2017-09-26T18:34:57.927Z,14.13
2017-09-26T18:36:04.471Z,15.18
2017-09-26T18:37:11.976Z,14.68
2017-09-26T18:38:18.397Z,15.48
2017-09-26T18:39:25.336Z,15.88
2017-09-26T18:40:33.864Z,15.40
2017-09-26T18:41:42.021Z,16.52
2017-09-26T18:42:49.341Z,15.50
2017-09-26T18:43:57.185Z,15.18
2017-09-26T18:45:04.408Z,15.50
2017-09-26T18:46:13.661Z,16.75
2017-09-26T18:47:23.596Z,17.12
2017-09-26T18:48:31.973Z,15.73
2017-09-26T18:49:40.529Z,16.20
2017-09-26T18:50:48.601Z,16.65
2017-09-26T18:51:56.115Z,17.37
2017-09-26T18:53:03.761Z,18.17
2017-09-26T18:54:13.141Z,19.08
2017-09-26T18:55:21.821Z,17.77
2017-09-26T18:56:29.346Z,19.90
2017-09-26T18:57:37.849Z,19.65
2017-09-26T18:58:47.299Z,19.55
2017-09-26T18:59:56.165Z,20.10
2017-09-26T19:01:04.697Z,20.40
2017-09-26T19:02:12.730Z,20.92
2017-09-26T19:03:20.334Z,21.95
2017-09-26T19:04:29.130Z,21.83
2017-09-26T19:05:37.533Z,20.52
2017-09-26T19:06:45.000Z,20.60
2017-09-26T19:07:53.572Z,22.52
2017-09-26T19:09:02.341Z,23.30
2017-09-26T19:10:11.038Z,23.35
2017-09-26T19:11:18.756Z,23.23
2017-09-26T19:12:25.949Z,23.08
2017-09-26T19:13:33.757Z,23.40
2017-09-26T19:14:41.396Z,23.05
2017-09-26T19:15:48.517Z,23.85
2017-09-26T19:16:55.960Z,25.35
2017-09-26T19:18:03.170Z,24.70
2017-09-26T19:19:10.964Z,24.05
2017-09-26T19:20:18.738Z,23.67
2017-09-26T19:21:25.485Z,25.62
2017-09-26T19:22:32.970Z,23.90
2017-09-26T19:23:41.867Z,25.77
2017-09-26T19:24:51.590Z,23.85
2017-09-26T19:25:59.499Z,24.83
2017-09-26T19:27:08.439Z,28.35
2017-09-26T19:28:16.095Z,26.00
2017-09-26T19:29:24.243Z,25.95
2017-09-26T19:30:31.714Z,25.40
2017-09-26T19:31:39.212Z,25.90
2017-09-26T19:32:47.432Z,26.58
2017-09-26T19:33:55.804Z,27.55
2017-09-26T19:35:03.012Z,26.23
2017-09-26T19:36:12.622Z,29.10
2017-09-26T19:37:19.862Z,27.17
2017-09-26T19:38:27.474Z,27.65
2017-09-26T19:39:35.360Z,28.02
2017-09-26T19:40:43.081Z,29.75
2017-09-26T19:41:51.318Z,28.40
2017-09-26T19:42:58.668Z,27.67
2017-09-26T19:44:06.364Z,29.10
2017-09-26T19:45:14.066Z,28.55
2017-09-26T19:46:21.607Z,27.00
2017-09-26T19:47:29.963Z,27.65
2017-09-26T19:48:37.586Z,27.52
2017-09-26T19:49:45.041Z,26.58
2017-09-26T19:50:56.430Z,28.45
2017-09-26T19:52:03.009Z,27.85
2017-09-26T19:53:11.701Z,27.75
2017-09-26T19:54:19.241Z,28.10
2017-09-26T19:55:29.742Z,27.15
2017-09-26T19:56:37.741Z,29.98
2017-09-26T19:57:45.920Z,26.40
2017-09-26T19:58:53.204Z,27.48
2017-09-26T20:00:01.140Z,27.15
2017-09-26T20:01:08.143Z,29.27
2017-09-26T20:02:15.639Z,29.05
2017-09-26T20:03:21.718Z,28.80
2017-09-26T20:04:28.986Z,27.50
2017-09-26T20:05:36.820Z,29.90
2017-09-26T20:06:44.191Z,26.25
2017-09-26T20:07:50.968Z,27.98
2017-09-26T20:08:59.875Z,27.50
2017-09-26T20:10:07.607Z,27.70
2017-09-26T20:11:16.316Z,29.52
2017-09-26T20:12:24.080Z,29.02
2017-09-26T20:13:31.761Z,28.77
2017-09-26T20:14:39.324Z,26.17
2017-09-26T20:15:47.419Z,27.67
2017-09-26T20:16:54.543Z,28.45
2017-09-26T20:18:01.760Z,27.10
2017-09-26T20:19:10.671Z,27.98
2017-09-26T20:20:18.098Z,27.87
2017-09-26T20:21:25.560Z,27.98
2017-09-26T20:22:32.779Z,29.63
2017-09-26T20:23:40.122Z,27.95
2017-09-26T20:24:48.140Z,28.92
2017-09-26T20:25:55.489Z,27.05
2017-09-26T20:27:03.447Z,27.48
2017-09-26T20:28:10.649Z,28.70
2017-09-26T20:29:17.213Z,27.40
2017-09-26T20:30:24.896Z,31.62
2017-09-26T20:31:32.282Z,30.67
2017-09-26T20:32:40.856Z,28.10
2017-09-26T20:33:47.698Z,29.25
2017-09-26T20:34:55.391Z,30.55
2017-09-26T20:36:02.453Z,32.60
2017-09-26T20:37:09.382Z,30.92
2017-09-26T20:38:17.256Z,31.55
2017-09-26T20:39:24.443Z,29.45
2017-09-26T20:40:31.229Z,29.48
2017-09-26T20:41:38.151Z,31.50
2017-09-26T20:42:44.345Z,31.10
2017-09-26T20:43:50.507Z,31.58
2017-09-26T20:44:57.051Z,31.55
2017-09-26T20:46:03.120Z,31.05
2017-09-26T20:47:09.301Z,32.42
2017-09-26T20:48:18.339Z,32.45
2017-09-26T20:49:24.543Z,32.15
2017-09-26T20:50:31.883Z,29.98
2017-09-26T20:51:38.807Z,32.33
2017-09-26T20:52:45.842Z,31.20
2017-09-26T20:53:53.550Z,31.87
2017-09-26T20:55:01.222Z,32.00
2017-09-26T20:56:09.459Z,33.78
2017-09-26T20:57:16.302Z,32.15
2017-09-26T20:58:23.563Z,32.33
2017-09-26T20:59:32.507Z,33.90
2017-09-26T21:00:40.476Z,33.45
2017-09-26T21:01:49.460Z,34.17
2017-09-26T21:02:57.095Z,34.55
2017-09-26T21:04:04.197Z,33.50
2017-09-26T21:05:11.957Z,34.03
2017-09-26T21:06:19.480Z,35.03
2017-09-26T21:07:27.234Z,34.30
2017-09-26T21:08:35.135Z,36.13
2017-09-26T21:09:43.750Z,36.10
2017-09-26T21:10:51.263Z,35.28
2017-09-26T21:12:00.736Z,35.10
2017-09-26T21:13:08.437Z,34.42
2017-09-26T21:14:16.150Z,35.30
2017-09-26T21:15:23.864Z,34.63
2017-09-26T21:16:33.735Z,31.62
2017-09-26T21:17:39.951Z,36.53
2017-09-26T21:18:46.152Z,34.47
2017-09-26T21:19:53.300Z,34.45
2017-09-26T21:21:00.440Z,36.38
2017-09-26T21:22:06.670Z,35.50
2017-09-26T21:23:12.825Z,35.95
2017-09-26T21:24:19.098Z,35.75
2017-09-26T21:25:25.848Z,37.17
2017-09-26T21:26:32.275Z,37.03
2017-09-26T21:27:38.539Z,36.85
2017-09-26T21:28:44.695Z,36.78
2017-09-26T21:29:51.662Z,37.00
2017-09-26T21:30:57.933Z,38.90
2017-09-26T21:32:04.178Z,37.63
2017-09-26T21:33:10.125Z,36.38
2017-09-26T21:34:16.259Z,37.63
2017-09-26T21:35:24.159Z,36.15
2017-09-26T21:36:31.630Z,40.30
2017-09-26T21:37:38.112Z,38.90
2017-09-26T21:38:44.408Z,39.75
2017-09-26T21:39:50.633Z,36.90
2017-09-26T21:40:57.032Z,39.58
2017-09-26T21:42:03.463Z,38.13
2017-09-26T21:43:09.593Z,40.00
2017-09-26T21:44:15.761Z,38.92
2017-09-26T21:45:22.736Z,39.30
2017-09-26T21:46:28.873Z,39.67
2017-09-26T21:47:35.060Z,39.63
2017-09-26T21:48:41.272Z,35.97
2017-09-26T21:49:47.236Z,38.60
2017-09-26T21:50:53.200Z,42.05
2017-09-26T21:51:59.490Z,41.75
2017-09-26T21:53:05.928Z,41.97
2017-09-26T21:54:12.136Z,39.33
2017-09-26T21:55:18.852Z,42.47
2017-09-26T21:56:25.119Z,40.50
2017-09-26T21:57:33.260Z,42.97
2017-09-26T21:58:39.425Z,39.85
2017-09-26T21:59:45.648Z,41.53
2017-09-26T22:00:53.253Z,40.70
2017-09-26T22:02:01.533Z,39.80
2017-09-26T22:03:08.608Z,41.95
2017-09-26T22:04:14.688Z,42.88
2017-09-26T22:05:20.671Z,43.75
2017-09-26T22:06:26.936Z,42.88
2017-09-26T22:07:34.676Z,42.03
2017-09-26T22:08:40.941Z,41.35
2017-09-26T22:09:47.509Z,41.22
2017-09-26T22:10:53.704Z,41.58
2017-09-26T22:11:59.909Z,42.33
2017-09-26T22:13:06.081Z,43.35
2017-09-26T22:14:12.358Z,43.67
2017-09-26T22:15:18.551Z,40.42
2017-09-26T22:16:24.916Z,42.78
2017-09-26T22:17:31.182Z,44.63
2017-09-26T22:18:37.364Z,41.20
2017-09-26T22:19:43.325Z,42.92
2017-09-26T22:20:50.159Z,43.17
2017-09-26T22:21:56.372Z,44.15
2017-09-26T22:23:02.680Z,45.90
2017-09-26T22:24:08.948Z,44.03
2017-09-26T22:25:15.107Z,43.60
2017-09-26T22:26:22.702Z,46.45
2017-09-26T22:27:28.884Z,43.03
2017-09-26T22:28:35.191Z,44.80
2017-09-26T22:29:41.512Z,44.53
2017-09-26T22:30:47.809Z,40.75
2017-09-26T22:31:54.847Z,45.58
2017-09-26T22:33:01.134Z,45.60
2017-09-26T22:34:08.186Z,45.85
2017-09-26T22:35:14.347Z,46.90
2017-09-26T22:36:21.463Z,47.20
2017-09-26T22:37:27.654Z,47.30
2017-09-26T22:38:33.843Z,44.78
2017-09-26T22:39:40.178Z,47.95
2017-09-26T22:40:46.879Z,44.22
2017-09-26T22:41:53.089Z,49.15
2017-09-26T22:42:59.347Z,44.53
2017-09-26T22:44:05.588Z,42.85
2017-09-26T22:45:12.124Z,46.40
2017-09-26T22:46:20.441Z,43.47
2017-09-26T22:47:26.817Z,44.20
2017-09-26T22:48:32.947Z,44.47
2017-09-26T22:49:39.645Z,41.85
2017-09-26T22:50:46.536Z,45.30
2017-09-26T22:51:52.712Z,45.20
2017-09-26T22:52:59.110Z,47.72
2017-09-26T22:54:07.183Z,46.67
2017-09-26T22:55:14.024Z,48.58
2017-09-26T22:56:20.993Z,47.35
2017-09-26T22:57:27.152Z,49.72
2017-09-26T22:58:33.580Z,48.38
2017-09-26T22:59:40.347Z,49.28
2017-09-26T23:00:47.319Z,49.58
2017-09-26T23:01:53.411Z,48.53
2017-09-26T23:03:00.872Z,49.45
2017-09-26T23:04:06.896Z,47.50
2017-09-26T23:05:13.735Z,46.47
2017-09-26T23:06:19.335Z,49.92
2017-09-26T23:07:26.979Z,48.97
2017-09-26T23:08:32.987Z,50.47
2017-09-26T23:09:39.137Z,49.65
2017-09-26T23:10:45.343Z,51.90
2017-09-26T23:11:52.679Z,50.10
2017-09-26T23:12:59.045Z,49.58
2017-09-26T23:14:05.419Z,47.58
2017-09-26T23:15:12.051Z,50.17
2017-09-26T23:16:18.011Z,48.38
2017-09-26T23:17:24.528Z,48.55
2017-09-26T23:18:31.351Z,50.88
2017-09-26T23:19:39.397Z,48.67
2017-09-26T23:20:45.508Z,49.38
2017-09-26T23:21:51.680Z,48.72
2017-09-26T23:22:57.773Z,50.08
2017-09-26T23:24:05.081Z,49.10
2017-09-26T23:25:11.807Z,48.97
2017-09-26T23:26:18.002Z,50.80
2017-09-26T23:27:24.165Z,50.58
2017-09-26T23:28:30.340Z,50.60
2017-09-26T23:29:36.648Z,53.30
2017-09-26T23:30:42.863Z,52.47
2017-09-26T23:31:49.205Z,52.40
2017-09-26T23:32:55.836Z,51.03
2017-09-26T23:34:03.060Z,55.78
2017-09-26T23:35:09.281Z,49.78
2017-09-26T23:36:15.549Z,49.13
2017-09-26T23:37:21.744Z,47.80
2017-09-26T23:38:29.318Z,41.72
2017-09-26T23:39:35.561Z,43.15
2017-09-26T23:40:41.748Z,44.65
2017-09-26T23:41:47.912Z,45.55
2017-09-26T23:42:54.272Z,43.33
2017-09-26T23:44:00.471Z,44.63
2017-09-26T23:45:06.889Z,41.42
2017-09-26T23:46:13.063Z,42.65
2017-09-26T23:47:20.248Z,40.88
2017-09-26T23:48:26.492Z,41.00
2017-09-26T23:49:32.596Z,39.65
2017-09-26T23:50:39.609Z,38.78
2017-09-26T23:51:45.742Z,39.13
2017-09-26T23:52:51.953Z,36.25
2017-09-26T23:53:58.087Z,38.78
2017-09-26T23:55:04.359Z,39.80
2017-09-26T23:56:10.549Z,39.85
2017-09-26T23:57:16.607Z,42.30
2017-09-26T23:58:22.884Z,40.42
2017-09-26T23:59:29.015Z,38.65
